createdAt,value
2022-12-05T00:01:44.752Z,96958.63
2022-12-05T00:03:48.316Z,96957.13
2022-12-05T00:05:51.056Z,96952.81
2022-12-05T00:07:53.736Z,96961.47
2022-12-05T00:09:56.573Z,96958.88
2022-12-05T00:11:59.423Z,96963.28
2022-12-05T00:14:02.945Z,96959.84
2022-12-05T00:16:10.566Z,96953.91
2022-12-05T00:18:13.201Z,96952.22
2022-12-05T00:20:15.853Z,96952.22
2022-12-05T00:22:18.500Z,96958.31
2022-12-05T00:24:21.718Z,96952.22
2022-12-05T00:26:24.707Z,96948.84
2022-12-05T00:28:27.303Z,96947.91
2022-12-05T00:30:29.888Z,96967.69
2022-12-05T00:32:33.899Z,96970.22
2022-12-05T00:34:36.529Z,96972.75
2022-12-05T00:36:39.334Z,96972.78
2022-12-05T00:38:42.594Z,96973.59
2022-12-05T00:40:45.222Z,96972.69
2022-12-05T00:42:52.138Z,96976.16
2022-12-05T00:44:55.152Z,96983.09
2022-12-05T00:46:57.815Z,96989.00
2022-12-05T00:49:03.138Z,96993.28
2022-12-05T00:51:08.437Z,96999.41
2022-12-05T00:53:11.023Z,97001.97
2022-12-05T00:55:13.666Z,96998.59
2022-12-05T00:57:16.274Z,97011.50
2022-12-05T00:59:20.855Z,97004.59
2022-12-05T01:01:25.669Z,97004.59
2022-12-05T01:03:28.383Z,97010.66
2022-12-05T01:05:35.024Z,97023.44
2022-12-05T01:07:37.770Z,97031.25
2022-12-05T01:09:40.377Z,97028.66
2022-12-05T01:11:44.911Z,97032.91
2022-12-05T01:13:48.657Z,97032.06
2022-12-05T01:15:52.071Z,97027.72
2022-12-05T01:17:54.630Z,97027.81
2022-12-05T01:19:57.566Z,97023.47
2022-12-05T01:22:02.010Z,97023.50
2022-12-05T01:24:04.980Z,97027.75
2022-12-05T01:26:09.177Z,97028.63
2022-12-05T01:28:12.970Z,97028.59
2022-12-05T01:30:15.953Z,97031.09
2022-12-05T01:32:19.274Z,97032.84
2022-12-05T01:34:22.321Z,97035.38
2022-12-05T01:36:26.534Z,97038.84
2022-12-05T01:38:30.958Z,97040.50
2022-12-05T01:40:35.892Z,97031.06
2022-12-05T01:42:39.873Z,97038.81
2022-12-05T01:45:02.649Z,97027.63
2022-12-05T01:47:05.381Z,97025.91
2022-12-05T01:49:11.912Z,97022.47
2022-12-05T01:51:14.538Z,97036.19
2022-12-05T01:53:17.582Z,97045.53
2022-12-05T01:55:21.780Z,97035.34
2022-12-05T01:57:25.546Z,97037.09
2022-12-05T01:59:31.539Z,97045.69
2022-12-05T02:01:34.959Z,97043.97
2022-12-05T02:03:39.036Z,97050.81
2022-12-05T02:05:42.375Z,97050.00
2022-12-05T02:07:47.290Z,97064.56
2022-12-05T02:09:52.019Z,97073.19
2022-12-05T02:11:59.608Z,97079.16
2022-12-05T02:14:17.368Z,97082.56
2022-12-05T02:16:29.394Z,97074.81
2022-12-05T02:18:43.790Z,97079.16
2022-12-05T02:21:04.151Z,97074.81
2022-12-05T02:23:26.525Z,97080.00
2022-12-05T02:25:54.481Z,97081.63
2022-12-05T02:28:22.400Z,97083.41
2022-12-05T02:30:27.855Z,97076.56
2022-12-05T02:32:42.266Z,97067.13
2022-12-05T02:34:53.982Z,97064.53
2022-12-05T02:37:03.527Z,97073.09
2022-12-05T02:39:13.466Z,97073.06
2022-12-05T02:41:22.231Z,97062.72
2022-12-05T02:43:30.447Z,97057.53
2022-12-05T02:45:39.406Z,97054.09
2022-12-05T02:47:45.149Z,97059.22
2022-12-05T02:49:49.641Z,97058.38
2022-12-05T02:51:57.613Z,97063.53
2022-12-05T02:54:03.626Z,97063.53
2022-12-05T02:56:08.151Z,97061.81
2022-12-05T02:58:18.278Z,97065.22
2022-12-05T03:00:21.850Z,97064.38
2022-12-05T03:02:28.000Z,97071.25
2022-12-05T03:04:32.328Z,97068.69
2022-12-05T03:06:38.060Z,97057.53
2022-12-05T03:08:46.582Z,97058.38
2022-12-05T03:10:52.156Z,97066.16
2022-12-05T03:12:59.906Z,97067.88
2022-12-05T03:15:07.408Z,97067.00
2022-12-05T03:17:14.946Z,97064.41
2022-12-05T03:19:24.116Z,97069.53
2022-12-05T03:21:32.633Z,97072.13
2022-12-05T03:23:39.075Z,97066.13
2022-12-05T03:25:51.565Z,97069.53
2022-12-05T03:28:03.338Z,97064.38
2022-12-05T03:30:08.772Z,97063.59
2022-12-05T03:32:15.166Z,97069.53
2022-12-05T03:34:30.665Z,97071.25
2022-12-05T03:36:38.883Z,97069.50
2022-12-05T03:38:49.023Z,97069.53
2022-12-05T03:40:58.213Z,97067.81
2022-12-05T03:43:09.062Z,97071.25
2022-12-05T03:45:16.150Z,97060.97
2022-12-05T03:47:25.245Z,97060.97
2022-12-05T03:49:34.561Z,97069.56
2022-12-05T03:51:44.008Z,97057.56
2022-12-05T03:53:51.317Z,97055.00
2022-12-05T03:56:00.262Z,97054.97
2022-12-05T03:58:08.388Z,97062.72
2022-12-05T04:00:13.973Z,97065.31
2022-12-05T04:02:23.007Z,97067.94
2022-12-05T04:04:32.392Z,97065.41
2022-12-05T04:06:37.579Z,97064.50
2022-12-05T04:08:43.840Z,97071.41
2022-12-05T04:10:50.467Z,97076.53
2022-12-05T04:12:56.770Z,97077.38
2022-12-05T04:15:02.951Z,97082.56
2022-12-05T04:17:09.324Z,97084.31
2022-12-05T04:19:17.821Z,97087.84
2022-12-05T04:21:41.155Z,97082.75
2022-12-05T04:23:47.795Z,97083.66
2022-12-05T04:26:01.490Z,97076.78
2022-12-05T04:28:21.172Z,97076.81
2022-12-05T04:30:26.486Z,97079.41
2022-12-05T04:32:34.527Z,97086.25
2022-12-05T04:34:39.641Z,97086.31
2022-12-05T04:36:48.241Z,97081.19
2022-12-05T04:38:56.036Z,97081.19
2022-12-05T04:41:01.775Z,97082.94
2022-12-05T04:43:05.840Z,97087.28
2022-12-05T04:45:12.874Z,97092.44
2022-12-05T04:47:18.072Z,97092.44
2022-12-05T04:49:24.269Z,97096.78
2022-12-05T04:51:30.433Z,97097.63
2022-12-05T04:53:35.435Z,97100.22
2022-12-05T04:55:42.807Z,97095.94
2022-12-05T04:57:53.169Z,97098.56
2022-12-05T04:59:56.638Z,97102.03
2022-12-05T05:02:05.949Z,97111.50
2022-12-05T05:04:12.418Z,97111.50
2022-12-05T05:06:15.881Z,97127.78
2022-12-05T05:08:20.761Z,97126.09
2022-12-05T05:10:32.093Z,97122.66
2022-12-05T05:12:34.669Z,97127.88
2022-12-05T05:14:37.307Z,97127.91
2022-12-05T05:16:41.371Z,97127.03
2022-12-05T05:18:43.978Z,97129.59
2022-12-05T05:20:46.589Z,97134.75
2022-12-05T05:22:49.523Z,97131.28
2022-12-05T05:24:52.160Z,97137.31
2022-12-05T05:26:57.613Z,97132.97
2022-12-05T05:29:01.124Z,97131.19
2022-12-05T05:31:04.614Z,97126.91
2022-12-05T05:33:07.305Z,97127.75
2022-12-05T05:35:11.645Z,97119.97
2022-12-05T05:37:14.314Z,97125.09
2022-12-05T05:39:16.947Z,97120.81
2022-12-05T05:41:20.960Z,97124.19
2022-12-05T05:43:27.695Z,97131.88
2022-12-05T05:45:30.286Z,97131.06
2022-12-05T05:47:32.908Z,97123.34
2022-12-05T05:49:35.593Z,97133.66
2022-12-05T05:51:38.281Z,97134.47
2022-12-05T05:53:41.010Z,97137.97
2022-12-05T05:55:43.773Z,97147.38
2022-12-05T05:57:46.437Z,97154.22
2022-12-05T05:59:50.417Z,97151.66
2022-12-05T06:01:53.028Z,97149.94
2022-12-05T06:03:55.795Z,97154.25
2022-12-05T06:05:59.124Z,97151.66
2022-12-05T06:08:01.748Z,97163.75
2022-12-05T06:10:05.499Z,97168.84
2022-12-05T06:12:08.563Z,97169.72
2022-12-05T06:14:11.199Z,97174.00
2022-12-05T06:16:17.337Z,97173.13
2022-12-05T06:18:19.914Z,97174.84
2022-12-05T06:20:22.518Z,97176.56
2022-12-05T06:22:25.116Z,97174.81
2022-12-05T06:24:27.815Z,97173.97
2022-12-05T06:26:30.431Z,97181.69
2022-12-05T06:28:33.730Z,97173.06
2022-12-05T06:30:36.355Z,97182.47
2022-12-05T06:32:40.357Z,97169.63
2022-12-05T06:34:42.984Z,97180.75
2022-12-05T06:36:45.569Z,97184.13
2022-12-05T06:38:48.216Z,97168.69
2022-12-05T06:40:50.846Z,97166.94
2022-12-05T06:42:53.537Z,97168.66
2022-12-05T06:44:56.153Z,97169.50
2022-12-05T06:46:58.792Z,97179.84
2022-12-05T06:49:03.001Z,97195.28
2022-12-05T06:51:06.968Z,97205.59
2022-12-05T06:53:09.606Z,97208.88
2022-12-05T06:55:12.268Z,97207.34
2022-12-05T06:57:15.231Z,97212.47
2022-12-05T06:59:17.984Z,97210.00
2022-12-05T07:01:41.514Z,97212.59
2022-12-05T07:03:44.990Z,97219.50
2022-12-05T07:05:49.117Z,97215.19
2022-12-05T07:07:52.048Z,97224.63
2022-12-05T07:09:54.801Z,97223.75
2022-12-05T07:11:57.420Z,97235.75
2022-12-05T07:14:00.175Z,97236.56
2022-12-05T07:16:04.400Z,97241.69
2022-12-05T07:18:07.250Z,97237.41
2022-12-05T07:20:12.654Z,97236.50
2022-12-05T07:22:16.612Z,97235.63
2022-12-05T07:24:19.262Z,97231.34
2022-12-05T07:26:27.084Z,97232.19
2022-12-05T07:28:29.853Z,97233.00
2022-12-05T07:30:32.843Z,97237.25
2022-12-05T07:32:35.764Z,97244.13
2022-12-05T07:34:39.433Z,97239.78
2022-12-05T07:36:42.121Z,97237.19
2022-12-05T07:38:46.323Z,97238.84
2022-12-05T07:40:48.894Z,97243.16
2022-12-05T07:42:53.341Z,97241.41
2022-12-05T07:44:55.945Z,97237.94
2022-12-05T07:46:58.947Z,97237.09
2022-12-05T07:49:01.520Z,97237.91
2022-12-05T07:51:06.144Z,97245.66
2022-12-05T07:53:08.781Z,97256.78
2022-12-05T07:55:12.760Z,97255.91
2022-12-05T07:57:15.365Z,97258.47
2022-12-05T07:59:17.991Z,97260.97
2022-12-05T08:01:25.500Z,97259.22
2022-12-05T08:03:28.152Z,97266.09
2022-12-05T08:05:30.764Z,97260.88
2022-12-05T08:07:33.386Z,97256.56
2022-12-05T08:09:36.315Z,97263.41
2022-12-05T08:11:40.293Z,97260.81
2022-12-05T08:13:43.750Z,97259.91
2022-12-05T08:15:46.357Z,97260.75
2022-12-05T08:17:48.957Z,97256.44
2022-12-05T08:19:51.561Z,97265.03
2022-12-05T08:21:55.280Z,97271.84
2022-12-05T08:23:58.356Z,97279.59
2022-12-05T08:26:05.211Z,97283.88
2022-12-05T08:28:09.188Z,97278.69
2022-12-05T08:30:11.960Z,97267.50
2022-12-05T08:32:14.571Z,97266.59
2022-12-05T08:34:19.037Z,97259.69
2022-12-05T08:36:21.609Z,97258.78
2022-12-05T08:38:24.318Z,97263.94
2022-12-05T08:40:27.111Z,97267.34
2022-12-05T08:42:29.701Z,97274.19
2022-12-05T08:44:33.656Z,97284.50
2022-12-05T08:46:38.503Z,97282.69
2022-12-05T08:48:41.543Z,97286.09
2022-12-05T08:50:44.161Z,97286.13
2022-12-05T08:52:46.970Z,97287.88
2022-12-05T08:54:49.560Z,97285.25
2022-12-05T08:56:52.964Z,97286.13
2022-12-05T08:59:02.914Z,97283.53
2022-12-05T09:01:11.947Z,97286.09
2022-12-05T09:03:14.777Z,97272.31
2022-12-05T09:05:27.515Z,97272.25
2022-12-05T09:07:31.625Z,97267.13
2022-12-05T09:09:34.831Z,97284.28
2022-12-05T09:11:40.807Z,97292.88
2022-12-05T09:13:43.972Z,97305.78
2022-12-05T09:15:46.612Z,97310.94
2022-12-05T09:17:50.608Z,97315.22
2022-12-05T09:19:53.258Z,97316.94
2022-12-05T09:21:57.053Z,97317.75
2022-12-05T09:24:00.735Z,97327.25
2022-12-05T09:26:03.788Z,97340.19
2022-12-05T09:28:06.360Z,97344.50
2022-12-05T09:30:10.548Z,97343.63
2022-12-05T09:32:13.262Z,97349.56
2022-12-05T09:34:18.329Z,97356.50
2022-12-05T09:36:23.099Z,97346.16
2022-12-05T09:38:26.049Z,97345.22
2022-12-05T09:40:28.768Z,97352.94
2022-12-05T09:42:39.546Z,97345.25
2022-12-05T09:45:05.875Z,97350.44
2022-12-05T09:47:16.073Z,97344.38
2022-12-05T09:49:20.440Z,97344.25
2022-12-05T09:51:23.157Z,97345.97
2022-12-05T09:53:30.680Z,97349.41
2022-12-05T09:55:40.850Z,97352.03
2022-12-05T09:57:48.397Z,97348.59
2022-12-05T09:59:51.006Z,97351.16
2022-12-05T10:02:00.947Z,97349.31
2022-12-05T10:04:19.014Z,97350.19
2022-12-05T10:06:27.299Z,97350.19
2022-12-05T10:08:35.317Z,97344.09
2022-12-05T10:10:52.538Z,97347.59
2022-12-05T10:13:09.562Z,97334.75
2022-12-05T10:15:17.778Z,97341.63
2022-12-05T10:17:27.674Z,97339.03
2022-12-05T10:19:35.242Z,97334.69
2022-12-05T10:21:45.409Z,97340.69
2022-12-05T10:23:58.273Z,97332.13
2022-12-05T10:26:05.725Z,97341.41
2022-12-05T10:28:16.583Z,97338.00
2022-12-05T10:30:21.557Z,97337.84
2022-12-05T10:32:29.402Z,97333.56
2022-12-05T10:34:34.862Z,97328.38
2022-12-05T10:36:38.778Z,97327.66
2022-12-05T10:38:42.970Z,97325.97
2022-12-05T10:40:50.823Z,97326.81
2022-12-05T10:42:53.569Z,97324.22
2022-12-05T10:44:59.383Z,97321.72
2022-12-05T10:47:02.468Z,97324.28
2022-12-05T10:49:11.758Z,97329.38
2022-12-05T10:51:16.062Z,97328.53
2022-12-05T10:53:24.020Z,97331.09
2022-12-05T10:55:32.253Z,97324.97
2022-12-05T10:57:34.848Z,97326.69
2022-12-05T10:59:47.280Z,97323.16
2022-12-05T11:01:53.481Z,97322.16
2022-12-05T11:03:59.448Z,97318.72
2022-12-05T11:06:04.150Z,97318.69
2022-12-05T11:08:06.795Z,97316.19
2022-12-05T11:10:26.598Z,97318.56
2022-12-05T11:12:37.218Z,97321.03
2022-12-05T11:14:39.840Z,97325.47
2022-12-05T11:16:42.566Z,97316.03
2022-12-05T11:18:48.611Z,97321.16
2022-12-05T11:20:52.042Z,97319.50
2022-12-05T11:22:57.012Z,97321.16
2022-12-05T11:24:59.948Z,97318.66
2022-12-05T11:27:22.541Z,97316.03
2022-12-05T11:29:35.149Z,97316.88
2022-12-05T11:31:37.785Z,97319.41
2022-12-05T11:33:40.651Z,97321.97
2022-12-05T11:35:43.741Z,97319.41
2022-12-05T11:37:58.047Z,97303.84
2022-12-05T11:40:02.724Z,97313.31
2022-12-05T11:42:20.607Z,97307.34
2022-12-05T11:44:57.216Z,97308.16
2022-12-05T11:47:10.942Z,97308.16
2022-12-05T11:49:30.007Z,97310.72
2022-12-05T11:51:40.087Z,97308.03
2022-12-05T11:54:13.362Z,97304.50
2022-12-05T11:56:29.718Z,97304.38
2022-12-05T11:58:57.368Z,97304.94
2022-12-05T12:01:10.506Z,97302.34
2022-12-05T12:03:54.707Z,97304.75
2022-12-05T12:06:12.789Z,97297.78
2022-12-05T12:08:24.037Z,97298.56
2022-12-05T12:10:34.302Z,97295.72
2022-12-05T12:12:51.196Z,97295.69
2022-12-05T12:15:03.739Z,97287.78
2022-12-05T12:17:17.289Z,97293.97
2022-12-05T12:19:40.130Z,97290.53
2022-12-05T12:22:03.558Z,97284.38
2022-12-05T12:24:17.094Z,97293.91
2022-12-05T12:26:29.314Z,97290.38
2022-12-05T12:28:42.314Z,97297.25
2022-12-05T12:30:56.936Z,97301.56
2022-12-05T12:33:08.196Z,97295.53
2022-12-05T12:35:30.002Z,97299.03
2022-12-05T12:37:44.039Z,97302.31
2022-12-05T12:39:53.487Z,97305.81
2022-12-05T12:42:10.389Z,97305.84
2022-12-05T12:44:33.521Z,97304.91
2022-12-05T12:46:48.915Z,97300.69
2022-12-05T12:49:04.820Z,97296.91
2022-12-05T12:51:14.525Z,97296.09
2022-12-05T12:53:56.300Z,97292.38
2022-12-05T12:56:05.319Z,97295.78
2022-12-05T12:58:18.057Z,97297.47
2022-12-05T13:00:28.812Z,97288.75
2022-12-05T13:02:41.184Z,97292.44
2022-12-05T13:04:50.866Z,97291.53
2022-12-05T13:06:57.437Z,97291.44
2022-12-05T13:09:04.514Z,97286.31
2022-12-05T13:11:11.621Z,97282.88
2022-12-05T13:13:17.185Z,97284.50
2022-12-05T13:15:23.485Z,97276.81
2022-12-05T13:17:26.444Z,97271.66
2022-12-05T13:19:37.271Z,97275.13
2022-12-05T13:21:41.462Z,97272.44
2022-12-05T13:23:47.602Z,97264.75
2022-12-05T13:25:52.573Z,97275.94
2022-12-05T13:27:58.321Z,97277.59
2022-12-05T13:30:06.981Z,97277.59
2022-12-05T13:32:30.323Z,97282.63
2022-12-05T13:34:53.872Z,97280.72
2022-12-05T13:37:17.396Z,97276.47
2022-12-05T13:39:40.658Z,97284.22
2022-12-05T13:42:03.359Z,97286.00
2022-12-05T13:44:12.470Z,97284.31
2022-12-05T13:46:27.310Z,97292.91
2022-12-05T13:48:33.959Z,97285.09
2022-12-05T13:50:43.225Z,97291.16
2022-12-05T13:52:49.885Z,97292.84
2022-12-05T13:54:59.237Z,97287.59
2022-12-05T13:57:03.710Z,97293.78
2022-12-05T13:59:06.302Z,97298.25
2022-12-05T14:01:47.673Z,97301.69
2022-12-05T14:03:58.293Z,97292.19
2022-12-05T14:06:01.114Z,97301.78
2022-12-05T14:08:46.810Z,97299.28
2022-12-05T14:11:12.198Z,97299.44
2022-12-05T14:13:42.331Z,97302.88
2022-12-05T14:15:46.446Z,97310.75
2022-12-05T14:17:50.152Z,97312.41
2022-12-05T14:20:06.602Z,97309.91
2022-12-05T14:22:35.218Z,97306.50
2022-12-05T14:24:46.333Z,97312.66
2022-12-05T14:27:07.231Z,97315.22
2022-12-05T14:29:26.151Z,97320.41
2022-12-05T14:31:43.696Z,97314.38
2022-12-05T14:33:46.505Z,97310.97
2022-12-05T14:35:51.469Z,97312.72
2022-12-05T14:37:56.593Z,97312.72
2022-12-05T14:40:02.995Z,97311.66
2022-12-05T14:42:24.869Z,97320.94
2022-12-05T14:44:32.128Z,97321.25
2022-12-05T14:46:35.336Z,97309.81
2022-12-05T14:48:47.325Z,97307.34
2022-12-05T14:50:52.719Z,97313.56
2022-12-05T14:53:22.705Z,97318.81
2022-12-05T14:55:27.255Z,97318.03
2022-12-05T14:57:32.577Z,97310.25
2022-12-05T14:59:45.137Z,97310.31
2022-12-05T15:01:53.134Z,97315.50
2022-12-05T15:04:09.179Z,97317.16
2022-12-05T15:06:16.459Z,97317.19
2022-12-05T15:08:21.333Z,97321.56
2022-12-05T15:10:29.419Z,97325.13
2022-12-05T15:12:39.958Z,97317.31
2022-12-05T15:14:48.958Z,97319.97
2022-12-05T15:16:55.031Z,97320.88
2022-12-05T15:19:03.128Z,97320.03
2022-12-05T15:21:10.501Z,97318.19
2022-12-05T15:23:42.178Z,97323.31
2022-12-05T15:25:47.100Z,97314.53
2022-12-05T15:27:55.451Z,97319.09
2022-12-05T15:29:58.947Z,97329.22
2022-12-05T15:32:03.648Z,97325.88
2022-12-05T15:34:12.341Z,97329.53
2022-12-05T15:36:15.133Z,97333.88
2022-12-05T15:38:27.592Z,97330.84
2022-12-05T15:40:37.409Z,97338.97
2022-12-05T15:42:45.688Z,97339.97
2022-12-05T15:44:48.411Z,97342.19
2022-12-05T15:46:54.545Z,97346.72
2022-12-05T15:49:00.490Z,97347.75
2022-12-05T15:51:04.022Z,97344.31
2022-12-05T15:53:14.563Z,97362.44
2022-12-05T15:55:25.941Z,97366.81
2022-12-05T15:57:37.994Z,97371.94
2022-12-05T15:59:46.710Z,97375.25
2022-12-05T16:01:53.975Z,97374.59
2022-12-05T16:03:59.550Z,97372.06
2022-12-05T16:06:10.640Z,97379.72
2022-12-05T16:08:13.589Z,97380.72
2022-12-05T16:10:17.678Z,97381.56
2022-12-05T16:12:27.015Z,97379.88
2022-12-05T16:14:59.055Z,97385.88
2022-12-05T16:17:02.659Z,97379.00
2022-12-05T16:19:08.074Z,97377.25
2022-12-05T16:21:37.837Z,97383.22
2022-12-05T16:23:43.973Z,97384.16
2022-12-05T16:25:46.587Z,97380.78
2022-12-05T16:27:58.310Z,97374.72
2022-12-05T16:30:19.163Z,97374.72
2022-12-05T16:32:26.279Z,97386.78
2022-12-05T16:34:34.300Z,97376.44
2022-12-05T16:36:36.937Z,97379.88
2022-12-05T16:38:40.889Z,97377.34
2022-12-05T16:40:53.969Z,97373.91
2022-12-05T16:43:02.976Z,97370.44
2022-12-05T16:45:06.893Z,97371.31
2022-12-05T16:47:23.574Z,97373.06
2022-12-05T16:49:36.410Z,97376.53
2022-12-05T16:51:43.156Z,97371.38
2022-12-05T16:53:47.295Z,97374.84
2022-12-05T16:55:50.324Z,97376.63
2022-12-05T16:57:52.926Z,97378.38
2022-12-05T16:59:55.594Z,97380.97
2022-12-05T17:01:58.256Z,97389.56
2022-12-05T17:04:00.992Z,97387.84
2022-12-05T17:06:05.512Z,97385.28
2022-12-05T17:08:08.421Z,97388.75
2022-12-05T17:10:11.251Z,97387.06
2022-12-05T17:12:19.688Z,97385.31
2022-12-05T17:14:22.649Z,97388.81
2022-12-05T17:16:26.617Z,97387.94
2022-12-05T17:18:31.799Z,97389.66
2022-12-05T17:20:35.534Z,97384.50
2022-12-05T17:22:39.553Z,97380.19
2022-12-05T17:24:42.173Z,97388.81
2022-12-05T17:26:45.409Z,97388.81
2022-12-05T17:28:48.862Z,97383.59
2022-12-05T17:30:52.031Z,97387.13
2022-12-05T17:32:55.071Z,97388.03
2022-12-05T17:35:00.099Z,97387.97
2022-12-05T17:37:04.945Z,97381.06
2022-12-05T17:39:09.293Z,97381.13
2022-12-05T17:41:16.752Z,97384.56
2022-12-05T17:43:24.771Z,97385.44
2022-12-05T17:45:27.835Z,97383.72
2022-12-05T17:47:30.469Z,97377.63
2022-12-05T17:49:33.095Z,97384.53
2022-12-05T17:51:48.105Z,97379.34
2022-12-05T17:53:58.301Z,97375.84
2022-12-05T17:56:02.273Z,97377.59
2022-12-05T17:58:04.858Z,97382.78
2022-12-05T18:00:08.925Z,97383.66
2022-12-05T18:02:12.442Z,97378.53
2022-12-05T18:04:17.691Z,97375.13
2022-12-05T18:06:26.521Z,97379.44
2022-12-05T18:08:29.161Z,97382.06
2022-12-05T18:10:31.737Z,97387.13
2022-12-05T18:12:35.769Z,97383.78
2022-12-05T18:14:39.496Z,97389.91
2022-12-05T18:16:42.182Z,97396.78
2022-12-05T18:18:44.915Z,97395.88
2022-12-05T18:20:47.512Z,97397.66
2022-12-05T18:22:51.176Z,97396.88
2022-12-05T18:24:54.222Z,97397.66
2022-12-05T18:26:56.871Z,97395.94
2022-12-05T18:29:00.861Z,97393.38
2022-12-05T18:31:08.050Z,97398.63
2022-12-05T18:33:10.677Z,97396.13
2022-12-05T18:35:13.425Z,97396.97
2022-12-05T18:37:18.309Z,97406.44
2022-12-05T18:39:20.937Z,97400.47
2022-12-05T18:41:24.281Z,97409.91
2022-12-05T18:43:26.864Z,97410.00
2022-12-05T18:45:30.978Z,97412.66
2022-12-05T18:47:33.593Z,97410.09
2022-12-05T18:49:36.371Z,97418.69
2022-12-05T18:51:39.368Z,97413.53
2022-12-05T18:53:43.004Z,97416.13
2022-12-05T18:56:13.023Z,97412.69
2022-12-05T18:58:08.885Z,97418.72
2022-12-05T19:00:12.879Z,97419.59
2022-12-05T19:02:16.880Z,97418.75
2022-12-05T19:04:21.586Z,97420.47
2022-12-05T19:06:26.731Z,97413.56
2022-12-05T19:08:29.405Z,97420.44
2022-12-05T19:10:32.003Z,97418.69
2022-12-05T19:12:34.583Z,97421.31
2022-12-05T19:14:37.893Z,97427.41
2022-12-05T19:16:40.745Z,97416.16
2022-12-05T19:18:45.061Z,97414.47
2022-12-05T19:20:52.152Z,97417.94
2022-12-05T19:23:00.553Z,97419.66
2022-12-05T19:25:03.691Z,97425.66
2022-12-05T19:27:06.279Z,97419.63
2022-12-05T19:29:09.439Z,97426.53
2022-12-05T19:31:14.278Z,97425.63
2022-12-05T19:33:17.015Z,97430.00
2022-12-05T19:35:21.064Z,97421.31
2022-12-05T19:37:23.696Z,97427.38
2022-12-05T19:39:27.037Z,97427.38
2022-12-05T19:41:31.263Z,97426.53
2022-12-05T19:43:34.861Z,97431.66
2022-12-05T19:45:39.476Z,97433.34
2022-12-05T19:47:42.073Z,97426.44
2022-12-05T19:49:44.707Z,97425.56
2022-12-05T19:51:48.712Z,97425.59
2022-12-05T19:53:51.425Z,97428.09
2022-12-05T19:55:54.040Z,97421.25
2022-12-05T19:57:56.678Z,97430.72
2022-12-05T19:59:59.575Z,97429.00
2022-12-05T20:02:02.470Z,97426.44
2022-12-05T20:04:07.111Z,97422.06
2022-12-05T20:06:12.027Z,97427.34
2022-12-05T20:08:16.069Z,97423.88
2022-12-05T20:10:19.008Z,97421.31
2022-12-05T20:12:21.643Z,97423.06
2022-12-05T20:14:25.657Z,97421.31
2022-12-05T20:16:29.843Z,97419.59
2022-12-05T20:18:33.547Z,97415.25
2022-12-05T20:20:36.249Z,97414.41
2022-12-05T20:22:38.851Z,97409.19
2022-12-05T20:24:42.833Z,97410.94
2022-12-05T20:26:48.643Z,97414.34
2022-12-05T20:28:51.687Z,97418.66
2022-12-05T20:30:54.418Z,97411.84
2022-12-05T20:32:57.071Z,97414.38
2022-12-05T20:34:59.763Z,97415.22
2022-12-05T20:37:02.371Z,97416.97
2022-12-05T20:39:06.694Z,97416.09
2022-12-05T20:41:12.137Z,97419.50
2022-12-05T20:43:15.971Z,97418.63
2022-12-05T20:45:18.730Z,97410.00
2022-12-05T20:47:21.315Z,97420.28
2022-12-05T20:49:24.179Z,97410.84
2022-12-05T20:51:28.381Z,97419.47
2022-12-05T20:53:33.680Z,97428.03
2022-12-05T20:55:36.507Z,97428.91
2022-12-05T20:57:40.555Z,97434.91
2022-12-05T20:59:43.279Z,97427.13
2022-12-05T21:01:47.433Z,97434.03
2022-12-05T21:03:51.617Z,97434.94
2022-12-05T21:05:54.445Z,97437.44
2022-12-05T21:07:57.114Z,97436.56
2022-12-05T21:10:04.716Z,97435.69
2022-12-05T21:12:10.603Z,97439.09
2022-12-05T21:14:14.846Z,97434.81
2022-12-05T21:16:20.369Z,97437.41
2022-12-05T21:18:23.075Z,97428.75
2022-12-05T21:20:25.657Z,97430.50
2022-12-05T21:22:28.291Z,97430.50
2022-12-05T21:24:30.953Z,97432.28
2022-12-05T21:26:35.868Z,97431.41
2022-12-05T21:28:38.621Z,97432.25
2022-12-05T21:30:42.617Z,97427.16
2022-12-05T21:32:45.414Z,97432.28
2022-12-05T21:34:48.218Z,97425.44
2022-12-05T21:36:50.984Z,97429.78
2022-12-05T21:38:56.323Z,97433.19
2022-12-05T21:40:59.811Z,97433.22
2022-12-05T21:43:02.481Z,97434.03
2022-12-05T21:45:05.726Z,97435.78
2022-12-05T21:47:09.694Z,97431.44
2022-12-05T21:49:12.376Z,97429.75
2022-12-05T21:51:14.975Z,97434.03
2022-12-05T21:53:18.262Z,97428.06
2022-12-05T21:55:20.899Z,97429.75
2022-12-05T21:57:23.487Z,97439.22
2022-12-05T21:59:27.087Z,97440.97
2022-12-05T22:01:30.032Z,97437.53
2022-12-05T22:03:34.389Z,97432.31
2022-12-05T22:05:36.979Z,97439.22
2022-12-05T22:07:39.715Z,97432.41
2022-12-05T22:09:42.372Z,97436.66
2022-12-05T22:11:45.159Z,97439.25
2022-12-05T22:13:48.919Z,97431.53
2022-12-05T22:15:51.590Z,97436.72
2022-12-05T22:17:54.200Z,97435.88
2022-12-05T22:19:58.600Z,97441.91
2022-12-05T22:22:01.443Z,97434.97
2022-12-05T22:24:04.076Z,97432.41
2022-12-05T22:26:08.359Z,97430.69
2022-12-05T22:28:10.925Z,97430.72
2022-12-05T22:30:14.156Z,97433.34
2022-12-05T22:32:16.787Z,97429.03
2022-12-05T22:34:19.476Z,97436.78
2022-12-05T22:36:24.214Z,97424.72
2022-12-05T22:38:28.431Z,97425.53
2022-12-05T22:40:31.048Z,97423.88
2022-12-05T22:42:33.662Z,97434.22
2022-12-05T22:44:36.277Z,97422.19
2022-12-05T22:46:39.019Z,97428.22
2022-12-05T22:48:42.044Z,97429.09
2022-12-05T22:50:48.226Z,97420.47
2022-12-05T22:52:52.203Z,97415.31
2022-12-05T22:54:54.796Z,97419.59
2022-12-05T22:56:57.397Z,97419.59
2022-12-05T22:59:01.374Z,97417.00
2022-12-05T23:01:12.427Z,97415.28
2022-12-05T23:03:15.376Z,97411.88
2022-12-05T23:05:18.112Z,97410.13
2022-12-05T23:07:20.802Z,97408.44
2022-12-05T23:09:25.046Z,97409.31
2022-12-05T23:11:29.660Z,97405.88
2022-12-05T23:13:33.788Z,97406.78
2022-12-05T23:15:38.939Z,97405.06
2022-12-05T23:17:42.949Z,97393.88
2022-12-05T23:19:45.623Z,97394.75
2022-12-05T23:21:48.296Z,97400.78
2022-12-05T23:23:52.807Z,97397.34
2022-12-05T23:25:58.527Z,97394.81
2022-12-05T23:28:01.245Z,97402.56
2022-12-05T23:30:04.132Z,97396.56
2022-12-05T23:32:06.865Z,97399.16
2022-12-05T23:34:09.950Z,97392.25
2022-12-05T23:36:13.629Z,97397.44
2022-12-05T23:38:16.313Z,97395.72
2022-12-05T23:40:19.343Z,97397.44
2022-12-05T23:42:23.792Z,97397.44
2022-12-05T23:44:26.496Z,97398.31
2022-12-05T23:46:29.749Z,97403.47
2022-12-05T23:48:33.367Z,97403.44
2022-12-05T23:50:36.044Z,97402.63
2022-12-05T23:52:38.912Z,97397.44
2022-12-05T23:54:43.931Z,97399.16
2022-12-05T23:56:46.887Z,97399.19
2022-12-05T23:58:51.064Z,97393.19
